| Date | Time | Temp. (oF) | Dew Point (oF) | Rel. Hum. (%) | Press. (in.) | Wind Dir. | Wind Speed (mph) | Hourly Rainfall (in.) |
|
|---|---|---|---|---|---|---|---|---|---|
| 1 | 02/24 | 00:00 | 28 | 22 | 80 | 30.27 | WSW | 0 | 0.00 |
| 2 | miss | miss | miss | miss | miss | miss | miss | miss | |
| 3 | 02/23 | 23:13 | 29 | 20 | 71 | 30.27 | NW | 1 | 0.00 |
| 4 | miss | miss | miss | miss | miss | miss | miss | miss | |
| 5 | 02/23 | 23:11 | 29 | 20 | 71 | 30.27 | NW | 1 | 0.00 |
| 6 | miss | miss | miss | miss | miss | miss | miss | miss | |
| 7 | 02/23 | 23:09 | 29 | 20 | 71 | 30.27 | NW | 2 | 0.00 |
| 8 | miss | miss | miss | miss | miss | miss | miss | miss | |
| 9 | 02/23 | 23:07 | 29 | 20 | 71 | 30.27 | WSW | 2 | 0.00 |
| 10 | miss | miss | miss | miss | miss | miss | miss | miss | |
| 11 | 02/23 | 23:05 | 29 | 20 | 71 | 30.27 | WSW | 1 | 0.00 |
| 12 | miss | miss | miss | miss | miss | miss | miss | miss | |
| 13 | 02/23 | 23:03 | 29 | 20 | 71 | 30.27 | WSW | 0 | 0.00 |
| 14 | miss | miss | miss | miss | miss | miss | miss | miss | |
| 15 | 02/23 | 23:01 | 29 | 20 | 71 | 30.27 | WSW | 0 | 0.00 |
| 16 | miss | miss | miss | miss | miss | miss | miss | miss | |
| 17 | 02/23 | 22:59 | 29 | 20 | 71 | 30.27 | WSW | 0 | 0.00 |
| 18 | 02/23 | 22:58 | 29 | 20 | 71 | 30.27 | WSW | 1 | 0.00 |
| 19 | 02/23 | 22:57 | 29 | 20 | 71 | 30.27 | WSW | 2 | 0.00 |
| 20 | 02/23 | 22:56 | 29 | 20 | 71 | 30.27 | WSW | 2 | 0.00 |
| 21 | 02/23 | 22:55 | 29 | 20 | 71 | 30.27 | WSW | 2 | 0.00 |
| 22 | miss | miss | miss | miss | miss | miss | miss | miss | |
| 23 | 02/23 | 22:53 | 30 | 21 | 70 | 30.27 | WSW | 2 | 0.00 |
| 24 | miss | miss | miss | miss | miss | miss | miss | miss | |
| 25 | 02/23 | 22:51 | 30 | 21 | 70 | 30.27 | WSW | 1 | 0.00 |
| 26 | miss | miss | miss | miss | miss | miss | miss | miss | |
| 27 | 02/23 | 22:00 | 30 | 20 | 66 | 30.27 | WNW | 3 | 0.00 |
| 28 | 02/23 | 21:00 | 32 | 21 | 65 | 30.26 | NW | 2 | 0.00 |
| 29 | 02/23 | 20:00 | 33 | 21 | 62 | 30.26 | NW | 3 | 0.00 |
| 30 | 02/23 | 19:00 | 35 | 21 | 57 | 30.25 | WNW | 2 | 0.00 |
| 31 | 02/23 | 18:00 | 37 | 21 | 54 | 30.22 | NW | 5 | 0.00 |
| 32 | 02/23 | 17:00 | 38 | 21 | 51 | 30.20 | NW | 4 | 0.00 |
| 33 | 02/23 | 16:00 | 40 | 22 | 50 | 30.19 | WNW | 9 | 0.00 |
| 34 | 02/23 | 15:00 | 40 | 23 | 51 | 30.17 | NW | 7 | 0.00 |
| 35 | 02/23 | 14:00 | 38 | 23 | 56 | 30.21 | NNW | 9 | 0.00 |
| 36 | 02/23 | 13:00 | 39 | 25 | 58 | 30.20 | NNW | 12 | 0.00 |
| 37 | 02/23 | 12:00 | 36 | 27 | 72 | 30.23 | NNW | 3 | 0.00 |
| 38 | 02/23 | 11:00 | 35 | 28 | 77 | 30.24 | NNW | 11 | 0.00 |
| 39 | 02/23 | 10:00 | 35 | 28 | 77 | 30.23 | NNW | 12 | 0.00 |
| 40 | 02/23 | 09:00 | 36 | 30 | 79 | 30.23 | WNW | 7 | 0.00 |
| 41 | 02/23 | 08:00 | 32 | 30 | 96 | 30.22 | WNW | 4 | 0.00 |
| 42 | 02/23 | 07:00 | 31 | 30 | 97 | 30.19 | W | 4 | 0.00 |
| 43 | 02/23 | 06:00 | 33 | 32 | 100 | 30.17 | NW | 2 | 0.00 |
| 44 | 02/23 | 05:00 | 34 | 33 | 100 | 30.15 | WNW | 5 | 0.00 |
| 45 | 02/23 | 04:00 | 34 | 33 | 100 | 30.13 | NW | 3 | 0.00 |
| 46 | 02/23 | 03:00 | 32 | 32 | 100 | 30.12 | SSW | 0 | 0.00 |
| 47 | 02/23 | 02:00 | 33 | 32 | 100 | 30.12 | S | 4 | 0.00 |
| 48 | 02/23 | 01:00 | 33 | 32 | 100 | 30.11 | S | 3 | 0.00 |
| 49 | 02/23 | 00:00 | 34 | 33 | 97 | 30.12 | WSW | 2 | 0.00 |
| 50 | 02/22 | 23:00 | 36 | 33 | 91 | 30.12 | WNW | 4 | 0.00 |
| 51 | 02/22 | 22:00 | 37 | 32 | 82 | 30.13 | W | 1 | 0.00 |
| 52 | 02/22 | 21:00 | 37 | 31 | 81 | 30.10 | SSE | 3 | 0.00 |
| 53 | 02/22 | 20:00 | 37 | 30 | 78 | 30.08 | SSE | 3 | 0.00 |
| 54 | 02/22 | 19:00 | 39 | 31 | 73 | 30.09 | E | 3 | 0.00 |
| 55 | 02/22 | 18:00 | 41 | 29 | 64 | 30.07 | SE | 0 | 0.00 |
| 56 | 02/22 | 17:00 | 43 | 29 | 59 | 30.06 | WSW | 0 | 0.00 |
| 57 | 02/22 | 16:00 | 43 | 30 | 62 | 30.07 | NNW | 3 | 0.00 |
| 58 | 02/22 | 15:00 | 43 | 31 | 63 | 30.08 | NNW | 5 | 0.00 |
| 59 | 02/22 | 14:00 | 42 | 31 | 67 | 30.10 | SW | 4 | 0.00 |
| 60 | 02/22 | 13:00 | 39 | 32 | 77 | 30.12 | NNW | 5 | 0.00 |
| 61 | 02/22 | 12:00 | 38 | 33 | 85 | 30.15 | NNW | 7 | 0.00 |
| 62 | 02/22 | 11:00 | 37 | 35 | 93 | 30.16 | WNW | 5 | 0.00 |
| 63 | 02/22 | 10:00 | 37 | 36 | 100 | 30.16 | NNW | 8 | 0.00 |
| 64 | 02/22 | 09:00 | 36 | 36 | 100 | 30.14 | NW | 2 | 0.00 |
| 65 | 02/22 | 08:00 | 34 | 33 | 100 | 30.12 | WNW | 3 | 0.00 |
| 66 | 02/22 | 07:00 | 34 | 33 | 100 | 30.09 | NW | 0 | 0.00 |
| 67 | 02/22 | 06:00 | 33 | 32 | 100 | 30.07 | WSW | 0 | 0.00 |
| 68 | 02/22 | 05:00 | 33 | 32 | 100 | 30.05 | WNW | 4 | 0.00 |
| 69 | 02/22 | 04:00 | 33 | 32 | 100 | 30.03 | NNW | 1 | 0.00 |
| 70 | 02/22 | 03:00 | 33 | 32 | 100 | 30.02 | NNW | 0 | 0.00 |
| 71 | 02/22 | 02:00 | 33 | 32 | 100 | 30.02 | NNW | 1 | 0.00 |
| 72 | 02/22 | 01:00 | 33 | 32 | 100 | 30.00 | NW | 3 | 0.00 |
| 73 | 02/22 | 00:00 | 33 | 32 | 100 | 29.97 | NE | 4 | 0.00 |